sensor_id;sensor_type;location;lat;lon;timestamp;P1;durP1;ratioP1;P2;durP2;ratioP2
5085;SDS011;4715;51.660;7.082;2023-08-01T00:01:55;1.23;;;1.10;;
5085;SDS011;4715;51.660;7.082;2023-08-01T00:04:18;0.97;;;0.97;;
5085;SDS011;4715;51.660;7.082;2023-08-01T00:06:40;1.20;;;1.20;;
5085;SDS011;4715;51.660;7.082;2023-08-01T00:09:02;1.03;;;1.03;;
5085;SDS011;4715;51.660;7.082;2023-08-01T00:11:26;1.17;;;1.17;;
5085;SDS011;4715;51.660;7.082;2023-08-01T00:13:48;1.50;;;1.20;;
5085;SDS011;4715;51.660;7.082;2023-08-01T00:16:10;1.40;;;1.30;;
5085;SDS011;4715;51.660;7.082;2023-08-01T00:18:32;1.37;;;1.00;;
5085;SDS011;4715;51.660;7.082;2023-08-01T00:20:54;0.90;;;0.90;;
5085;SDS011;4715;51.660;7.082;2023-08-01T00:23:18;2.30;;;1.13;;
5085;SDS011;4715;51.660;7.082;2023-08-01T00:25:41;1.80;;;1.33;;
5085;SDS011;4715;51.660;7.082;2023-08-01T00:28:04;0.80;;;0.80;;
5085;SDS011;4715;51.660;7.082;2023-08-01T00:30:26;1.10;;;1.10;;
5085;SDS011;4715;51.660;7.082;2023-08-01T00:32:48;1.27;;;1.17;;
5085;SDS011;4715;51.660;7.082;2023-08-01T00:35:10;1.17;;;1.17;;
5085;SDS011;4715;51.660;7.082;2023-08-01T00:37:32;1.10;;;1.03;;
5085;SDS011;4715;51.660;7.082;2023-08-01T00:39:54;1.00;;;1.00;;
5085;SDS011;4715;51.660;7.082;2023-08-01T00:42:16;1.13;;;1.13;;
5085;SDS011;4715;51.660;7.082;2023-08-01T00:44:39;1.40;;;1.30;;
5085;SDS011;4715;51.660;7.082;2023-08-01T00:47:01;1.60;;;1.50;;
5085;SDS011;4715;51.660;7.082;2023-08-01T00:49:23;1.40;;;1.30;;
5085;SDS011;4715;51.660;7.082;2023-08-01T00:51:46;1.10;;;1.00;;
5085;SDS011;4715;51.660;7.082;2023-08-01T00:54:08;1.13;;;1.13;;
5085;SDS011;4715;51.660;7.082;2023-08-01T00:56:33;1.13;;;1.13;;
5085;SDS011;4715;51.660;7.082;2023-08-01T00:58:55;1.33;;;1.30;;
5085;SDS011;4715;51.660;7.082;2023-08-01T01:01:18;1.50;;;1.40;;
5085;SDS011;4715;51.660;7.082;2023-08-01T01:03:39;1.20;;;1.20;;
5085;SDS011;4715;51.660;7.082;2023-08-01T01:06:06;1.17;;;1.17;;
5085;SDS011;4715;51.660;7.082;2023-08-01T01:08:35;1.07;;;1.07;;
5085;SDS011;4715;51.660;7.082;2023-08-01T01:10:57;1.50;;;1.40;;
5085;SDS011;4715;51.660;7.082;2023-08-01T01:13:19;3.50;;;1.50;;
5085;SDS011;4715;51.660;7.082;2023-08-01T01:15:41;1.47;;;1.37;;
5085;SDS011;4715;51.660;7.082;2023-08-01T01:18:04;2.83;;;2.10;;
5085;SDS011;4715;51.660;7.082;2023-08-01T01:20:31;2.10;;;1.57;;
5085;SDS011;4715;51.660;7.082;2023-08-01T01:22:58;1.87;;;1.77;;
5085;SDS011;4715;51.660;7.082;2023-08-01T01:25:20;2.40;;;1.67;;
5085;SDS011;4715;51.660;7.082;2023-08-01T01:27:43;1.83;;;1.70;;
5085;SDS011;4715;51.660;7.082;2023-08-01T01:30:07;1.73;;;1.63;;
5085;SDS011;4715;51.660;7.082;2023-08-01T01:32:30;2.10;;;1.83;;
5085;SDS011;4715;51.660;7.082;2023-08-01T01:34:52;2.50;;;1.90;;
5085;SDS011;4715;51.660;7.082;2023-08-01T01:37:15;2.10;;;2.00;;
5085;SDS011;4715;51.660;7.082;2023-08-01T01:39:37;1.60;;;1.50;;
5085;SDS011;4715;51.660;7.082;2023-08-01T01:41:59;1.93;;;1.83;;
5085;SDS011;4715;51.660;7.082;2023-08-01T01:44:20;1.97;;;1.87;;
5085;SDS011;4715;51.660;7.082;2023-08-01T01:46:42;2.00;;;1.90;;
5085;SDS011;4715;51.660;7.082;2023-08-01T01:49:04;1.80;;;1.70;;
5085;SDS011;4715;51.660;7.082;2023-08-01T01:51:26;1.90;;;1.80;;
5085;SDS011;4715;51.660;7.082;2023-08-01T01:53:50;2.33;;;2.20;;
5085;SDS011;4715;51.660;7.082;2023-08-01T01:56:12;1.90;;;1.80;;
5085;SDS011;4715;51.660;7.082;2023-08-01T01:58:34;2.90;;;2.23;;
5085;SDS011;4715;51.660;7.082;2023-08-01T02:00:55;2.63;;;2.43;;
5085;SDS011;4715;51.660;7.082;2023-08-01T02:03:17;2.30;;;2.10;;
5085;SDS011;4715;51.660;7.082;2023-08-01T02:05:39;3.13;;;2.93;;
5085;SDS011;4715;51.660;7.082;2023-08-01T02:08:01;1.80;;;1.60;;
5085;SDS011;4715;51.660;7.082;2023-08-01T02:10:26;2.80;;;2.00;;
5085;SDS011;4715;51.660;7.082;2023-08-01T02:12:48;2.07;;;1.97;;
5085;SDS011;4715;51.660;7.082;2023-08-01T02:15:10;2.53;;;2.43;;
5085;SDS011;4715;51.660;7.082;2023-08-01T02:17:32;2.10;;;2.00;;
5085;SDS011;4715;51.660;7.082;2023-08-01T02:19:53;2.83;;;2.30;;
5085;SDS011;4715;51.660;7.082;2023-08-01T02:22:15;2.60;;;2.50;;
5085;SDS011;4715;51.660;7.082;2023-08-01T02:24:39;3.63;;;2.80;;
5085;SDS011;4715;51.660;7.082;2023-08-01T02:27:02;2.23;;;2.13;;
5085;SDS011;4715;51.660;7.082;2023-08-01T02:29:24;3.03;;;2.83;;
5085;SDS011;4715;51.660;7.082;2023-08-01T02:31:46;2.87;;;2.63;;
5085;SDS011;4715;51.660;7.082;2023-08-01T02:34:08;2.57;;;2.43;;
5085;SDS011;4715;51.660;7.082;2023-08-01T02:36:30;10.73;;;3.90;;
5085;SDS011;4715;51.660;7.082;2023-08-01T02:38:52;3.67;;;3.13;;
5085;SDS011;4715;51.660;7.082;2023-08-01T02:41:13;2.47;;;2.27;;
5085;SDS011;4715;51.660;7.082;2023-08-01T02:43:37;4.57;;;3.07;;
5085;SDS011;4715;51.660;7.082;2023-08-01T02:45:59;5.40;;;4.30;;
5085;SDS011;4715;51.660;7.082;2023-08-01T02:48:21;3.33;;;3.03;;
5085;SDS011;4715;51.660;7.082;2023-08-01T02:50:43;3.30;;;3.07;;
5085;SDS011;4715;51.660;7.082;2023-08-01T02:53:06;4.60;;;4.20;;
5085;SDS011;4715;51.660;7.082;2023-08-01T02:55:27;4.20;;;3.90;;
5085;SDS011;4715;51.660;7.082;2023-08-01T02:57:49;4.57;;;4.10;;
5085;SDS011;4715;51.660;7.082;2023-08-01T03:00:13;6.10;;;3.90;;
5085;SDS011;4715;51.660;7.082;2023-08-01T03:02:37;7.13;;;4.80;;
5085;SDS011;4715;51.660;7.082;2023-08-01T03:04:59;5.33;;;4.83;;
5085;SDS011;4715;51.660;7.082;2023-08-01T03:07:24;6.03;;;5.27;;
5085;SDS011;4715;51.660;7.082;2023-08-01T03:09:46;6.63;;;6.03;;
5085;SDS011;4715;51.660;7.082;2023-08-01T03:12:08;4.53;;;4.23;;
5085;SDS011;4715;51.660;7.082;2023-08-01T03:14:30;4.97;;;4.57;;
5085;SDS011;4715;51.660;7.082;2023-08-01T03:16:53;5.90;;;5.40;;
5085;SDS011;4715;51.660;7.082;2023-08-01T03:19:15;5.50;;;5.00;;
5085;SDS011;4715;51.660;7.082;2023-08-01T03:21:38;5.73;;;5.23;;
5085;SDS011;4715;51.660;7.082;2023-08-01T03:24:00;8.43;;;7.63;;
5085;SDS011;4715;51.660;7.082;2023-08-01T03:26:22;7.13;;;6.30;;
5085;SDS011;4715;51.660;7.082;2023-08-01T03:28:44;7.73;;;5.93;;
5085;SDS011;4715;51.660;7.082;2023-08-01T03:31:06;7.67;;;6.97;;
5085;SDS011;4715;51.660;7.082;2023-08-01T03:33:29;7.57;;;6.83;;
5085;SDS011;4715;51.660;7.082;2023-08-01T03:35:51;7.43;;;6.70;;
5085;SDS011;4715;51.660;7.082;2023-08-01T03:38:13;10.90;;;7.00;;
5085;SDS011;4715;51.660;7.082;2023-08-01T03:40:35;6.93;;;6.43;;
5085;SDS011;4715;51.660;7.082;2023-08-01T03:42:58;7.60;;;6.87;;
5085;SDS011;4715;51.660;7.082;2023-08-01T03:45:20;9.43;;;8.20;;
5085;SDS011;4715;51.660;7.082;2023-08-01T03:47:42;7.57;;;6.87;;
5085;SDS011;4715;51.660;7.082;2023-08-01T03:50:05;8.80;;;7.63;;
5085;SDS011;4715;51.660;7.082;2023-08-01T03:52:28;7.27;;;6.70;;
5085;SDS011;4715;51.660;7.082;2023-08-01T03:54:53;7.20;;;6.60;;
5085;SDS011;4715;51.660;7.082;2023-08-01T03:57:15;9.33;;;8.40;;
5085;SDS011;4715;51.660;7.082;2023-08-01T03:59:37;13.47;;;9.20;;
5085;SDS011;4715;51.660;7.082;2023-08-01T04:02:00;9.37;;;8.00;;
5085;SDS011;4715;51.660;7.082;2023-08-01T04:04:21;13.10;;;8.77;;
5085;SDS011;4715;51.660;7.082;2023-08-01T04:06:45;12.67;;;7.57;;
5085;SDS011;4715;51.660;7.082;2023-08-01T04:09:07;8.23;;;7.40;;
5085;SDS011;4715;51.660;7.082;2023-08-01T04:11:30;6.43;;;5.87;;
5085;SDS011;4715;51.660;7.082;2023-08-01T04:13:52;10.87;;;6.03;;
5085;SDS011;4715;51.660;7.082;2023-08-01T04:16:14;5.67;;;5.17;;
5085;SDS011;4715;51.660;7.082;2023-08-01T04:18:35;6.90;;;6.13;;
5085;SDS011;4715;51.660;7.082;2023-08-01T04:20:57;7.67;;;6.77;;
5085;SDS011;4715;51.660;7.082;2023-08-01T04:23:22;6.13;;;5.63;;
5085;SDS011;4715;51.660;7.082;2023-08-01T04:25:43;6.67;;;6.07;;
5085;SDS011;4715;51.660;7.082;2023-08-01T04:28:06;10.17;;;8.07;;
5085;SDS011;4715;51.660;7.082;2023-08-01T04:30:29;9.50;;;7.17;;
5085;SDS011;4715;51.660;7.082;2023-08-01T04:32:53;12.37;;;7.80;;
5085;SDS011;4715;51.660;7.082;2023-08-01T04:35:15;15.63;;;9.10;;
5085;SDS011;4715;51.660;7.082;2023-08-01T04:37:37;17.03;;;10.23;;
5085;SDS011;4715;51.660;7.082;2023-08-01T04:40:01;17.20;;;9.80;;
5085;SDS011;4715;51.660;7.082;2023-08-01T04:42:23;13.73;;;10.40;;
5085;SDS011;4715;51.660;7.082;2023-08-01T04:44:45;11.00;;;8.50;;
5085;SDS011;4715;51.660;7.082;2023-08-01T04:47:06;9.80;;;7.70;;
5085;SDS011;4715;51.660;7.082;2023-08-01T04:49:28;10.40;;;8.10;;
5085;SDS011;4715;51.660;7.082;2023-08-01T04:51:50;10.57;;;7.27;;
5085;SDS011;4715;51.660;7.082;2023-08-01T04:54:12;16.57;;;8.87;;
5085;SDS011;4715;51.660;7.082;2023-08-01T04:56:35;8.93;;;7.40;;
5085;SDS011;4715;51.660;7.082;2023-08-01T04:58:57;14.23;;;8.77;;
5085;SDS011;4715;51.660;7.082;2023-08-01T05:01:19;11.80;;;9.57;;
5085;SDS011;4715;51.660;7.082;2023-08-01T05:03:41;13.10;;;9.10;;
5085;SDS011;4715;51.660;7.082;2023-08-01T05:06:03;11.40;;;8.40;;
5085;SDS011;4715;51.660;7.082;2023-08-01T05:08:25;10.03;;;7.80;;
5085;SDS011;4715;51.660;7.082;2023-08-01T05:10:47;9.53;;;8.43;;
5085;SDS011;4715;51.660;7.082;2023-08-01T05:13:10;12.10;;;9.67;;
5085;SDS011;4715;51.660;7.082;2023-08-01T05:15:32;10.97;;;8.20;;
5085;SDS011;4715;51.660;7.082;2023-08-01T05:17:54;12.73;;;9.80;;
5085;SDS011;4715;51.660;7.082;2023-08-01T05:20:16;12.70;;;10.93;;
5085;SDS011;4715;51.660;7.082;2023-08-01T05:22:37;17.40;;;10.23;;
5085;SDS011;4715;51.660;7.082;2023-08-01T05:24:59;15.07;;;10.67;;
5085;SDS011;4715;51.660;7.082;2023-08-01T05:27:22;11.03;;;9.67;;
5085;SDS011;4715;51.660;7.082;2023-08-01T05:29:45;15.50;;;9.70;;
5085;SDS011;4715;51.660;7.082;2023-08-01T05:32:07;13.37;;;9.73;;
5085;SDS011;4715;51.660;7.082;2023-08-01T05:34:28;11.53;;;9.00;;
5085;SDS011;4715;51.660;7.082;2023-08-01T05:36:50;20.40;;;8.77;;
5085;SDS011;4715;51.660;7.082;2023-08-01T05:39:12;14.63;;;10.47;;
5085;SDS011;4715;51.660;7.082;2023-08-01T05:41:34;17.70;;;11.33;;
5085;SDS011;4715;51.660;7.082;2023-08-01T05:43:57;19.90;;;10.37;;
5085;SDS011;4715;51.660;7.082;2023-08-01T05:46:20;17.20;;;11.40;;
5085;SDS011;4715;51.660;7.082;2023-08-01T05:48:42;16.93;;;10.67;;
5085;SDS011;4715;51.660;7.082;2023-08-01T05:51:04;14.67;;;9.20;;
5085;SDS011;4715;51.660;7.082;2023-08-01T05:53:26;15.87;;;9.70;;
5085;SDS011;4715;51.660;7.082;2023-08-01T05:55:48;23.03;;;13.20;;
5085;SDS011;4715;51.660;7.082;2023-08-01T05:58:10;15.07;;;11.27;;
5085;SDS011;4715;51.660;7.082;2023-08-01T06:00:32;22.97;;;12.27;;
5085;SDS011;4715;51.660;7.082;2023-08-01T06:02:55;14.37;;;11.20;;
5085;SDS011;4715;51.660;7.082;2023-08-01T06:05:17;23.20;;;12.80;;
5085;SDS011;4715;51.660;7.082;2023-08-01T06:07:39;23.23;;;13.17;;
5085;SDS011;4715;51.660;7.082;2023-08-01T06:10:01;18.23;;;13.10;;
5085;SDS011;4715;51.660;7.082;2023-08-01T06:12:24;19.70;;;12.43;;
5085;SDS011;4715;51.660;7.082;2023-08-01T06:14:46;23.50;;;13.50;;
5085;SDS011;4715;51.660;7.082;2023-08-01T06:17:08;18.70;;;12.73;;
5085;SDS011;4715;51.660;7.082;2023-08-01T06:19:31;24.33;;;14.07;;
5085;SDS011;4715;51.660;7.082;2023-08-01T06:21:53;20.73;;;13.97;;
5085;SDS011;4715;51.660;7.082;2023-08-01T06:24:16;21.70;;;14.23;;
5085;SDS011;4715;51.660;7.082;2023-08-01T06:26:38;20.50;;;14.60;;
5085;SDS011;4715;51.660;7.082;2023-08-01T06:29:00;20.83;;;15.00;;
5085;SDS011;4715;51.660;7.082;2023-08-01T06:31:22;17.60;;;14.13;;
5085;SDS011;4715;51.660;7.082;2023-08-01T06:33:44;23.70;;;14.80;;
5085;SDS011;4715;51.660;7.082;2023-08-01T06:36:08;22.97;;;12.70;;
5085;SDS011;4715;51.660;7.082;2023-08-01T06:38:30;22.07;;;12.63;;
5085;SDS011;4715;51.660;7.082;2023-08-01T06:40:51;19.60;;;14.50;;
5085;SDS011;4715;51.660;7.082;2023-08-01T06:43:13;19.27;;;13.60;;
5085;SDS011;4715;51.660;7.082;2023-08-01T06:45:35;15.87;;;13.07;;
5085;SDS011;4715;51.660;7.082;2023-08-01T06:47:57;18.73;;;13.83;;
5085;SDS011;4715;51.660;7.082;2023-08-01T06:50:19;20.83;;;14.13;;
5085;SDS011;4715;51.660;7.082;2023-08-01T06:52:42;17.87;;;13.37;;
5085;SDS011;4715;51.660;7.082;2023-08-01T06:55:04;18.40;;;12.87;;
5085;SDS011;4715;51.660;7.082;2023-08-01T06:57:26;18.43;;;13.00;;
5085;SDS011;4715;51.660;7.082;2023-08-01T06:59:48;20.07;;;13.00;;
5085;SDS011;4715;51.660;7.082;2023-08-01T07:02:11;23.03;;;13.23;;
5085;SDS011;4715;51.660;7.082;2023-08-01T07:04:33;15.50;;;13.40;;
5085;SDS011;4715;51.660;7.082;2023-08-01T07:06:55;15.83;;;11.57;;
5085;SDS011;4715;51.660;7.082;2023-08-01T07:09:18;17.63;;;12.23;;
5085;SDS011;4715;51.660;7.082;2023-08-01T07:11:40;15.77;;;11.70;;
5085;SDS011;4715;51.660;7.082;2023-08-01T07:14:02;14.13;;;11.50;;
5085;SDS011;4715;51.660;7.082;2023-08-01T07:16:23;18.57;;;11.93;;
5085;SDS011;4715;51.660;7.082;2023-08-01T07:18:45;16.70;;;11.50;;
5085;SDS011;4715;51.660;7.082;2023-08-01T07:21:08;14.20;;;11.03;;
5085;SDS011;4715;51.660;7.082;2023-08-01T07:23:30;16.40;;;12.60;;
5085;SDS011;4715;51.660;7.082;2023-08-01T07:25:54;13.37;;;10.60;;
5085;SDS011;4715;51.660;7.082;2023-08-01T07:28:15;17.83;;;12.07;;
5085;SDS011;4715;51.660;7.082;2023-08-01T07:30:37;16.60;;;10.70;;
5085;SDS011;4715;51.660;7.082;2023-08-01T07:32:59;15.47;;;10.50;;
5085;SDS011;4715;51.660;7.082;2023-08-01T07:35:21;11.07;;;9.30;;
5085;SDS011;4715;51.660;7.082;2023-08-01T07:37:43;13.37;;;10.03;;
5085;SDS011;4715;51.660;7.082;2023-08-01T07:40:05;11.40;;;9.73;;
5085;SDS011;4715;51.660;7.082;2023-08-01T07:42:28;17.17;;;9.87;;
5085;SDS011;4715;51.660;7.082;2023-08-01T07:44:50;12.13;;;8.63;;
5085;SDS011;4715;51.660;7.082;2023-08-01T07:47:12;14.37;;;10.77;;
5085;SDS011;4715;51.660;7.082;2023-08-01T07:49:34;14.20;;;9.93;;
5085;SDS011;4715;51.660;7.082;2023-08-01T07:51:56;19.10;;;9.20;;
5085;SDS011;4715;51.660;7.082;2023-08-01T07:54:18;12.23;;;10.60;;
5085;SDS011;4715;51.660;7.082;2023-08-01T07:56:40;15.20;;;10.30;;
5085;SDS011;4715;51.660;7.082;2023-08-01T07:59:05;16.37;;;10.10;;
5085;SDS011;4715;51.660;7.082;2023-08-01T08:01:26;17.40;;;10.00;;
5085;SDS011;4715;51.660;7.082;2023-08-01T08:03:48;19.10;;;10.50;;
5085;SDS011;4715;51.660;7.082;2023-08-01T08:06:10;18.40;;;9.20;;
5085;SDS011;4715;51.660;7.082;2023-08-01T08:08:33;15.90;;;10.20;;
5085;SDS011;4715;51.660;7.082;2023-08-01T08:10:56;13.10;;;9.47;;
5085;SDS011;4715;51.660;7.082;2023-08-01T08:13:32;10.20;;;8.90;;
5085;SDS011;4715;51.660;7.082;2023-08-01T08:15:56;10.80;;;9.40;;
5085;SDS011;4715;51.660;7.082;2023-08-01T08:18:19;11.23;;;7.53;;
5085;SDS011;4715;51.660;7.082;2023-08-01T08:20:41;9.77;;;8.10;;
5085;SDS011;4715;51.660;7.082;2023-08-01T08:23:04;14.30;;;7.73;;
5085;SDS011;4715;51.660;7.082;2023-08-01T08:25:27;11.83;;;7.13;;
5085;SDS011;4715;51.660;7.082;2023-08-01T08:27:49;13.83;;;7.00;;
5085;SDS011;4715;51.660;7.082;2023-08-01T08:30:11;10.83;;;6.70;;
5085;SDS011;4715;51.660;7.082;2023-08-01T08:32:34;11.13;;;7.30;;
5085;SDS011;4715;51.660;7.082;2023-08-01T08:35:00;7.13;;;6.10;;
5085;SDS011;4715;51.660;7.082;2023-08-01T08:37:22;8.90;;;6.40;;
5085;SDS011;4715;51.660;7.082;2023-08-01T08:39:43;10.53;;;6.93;;
5085;SDS011;4715;51.660;7.082;2023-08-01T08:42:05;10.20;;;6.20;;
5085;SDS011;4715;51.660;7.082;2023-08-01T08:44:27;6.97;;;6.20;;
5085;SDS011;4715;51.660;7.082;2023-08-01T08:46:51;8.33;;;6.77;;
5085;SDS011;4715;51.660;7.082;2023-08-01T08:49:15;10.43;;;6.40;;
5085;SDS011;4715;51.660;7.082;2023-08-01T08:51:40;9.93;;;5.80;;
5085;SDS011;4715;51.660;7.082;2023-08-01T08:54:02;11.23;;;6.90;;
5085;SDS011;4715;51.660;7.082;2023-08-01T08:56:24;8.87;;;5.67;;
5085;SDS011;4715;51.660;7.082;2023-08-01T08:58:46;5.23;;;4.80;;
5085;SDS011;4715;51.660;7.082;2023-08-01T09:01:09;10.07;;;5.50;;
5085;SDS011;4715;51.660;7.082;2023-08-01T09:03:31;6.17;;;5.57;;
5085;SDS011;4715;51.660;7.082;2023-08-01T09:05:58;10.63;;;5.37;;
5085;SDS011;4715;51.660;7.082;2023-08-01T09:08:23;5.73;;;5.10;;
5085;SDS011;4715;51.660;7.082;2023-08-01T09:10:48;6.03;;;5.30;;
5085;SDS011;4715;51.660;7.082;2023-08-01T09:13:10;8.77;;;4.80;;
5085;SDS011;4715;51.660;7.082;2023-08-01T09:15:32;5.20;;;4.27;;
5085;SDS011;4715;51.660;7.082;2023-08-01T09:17:54;5.47;;;4.30;;
5085;SDS011;4715;51.660;7.082;2023-08-01T09:20:20;4.30;;;3.90;;
5085;SDS011;4715;51.660;7.082;2023-08-01T09:22:44;4.40;;;4.00;;
5085;SDS011;4715;51.660;7.082;2023-08-01T09:25:07;6.50;;;4.80;;
5085;SDS011;4715;51.660;7.082;2023-08-01T09:27:32;6.60;;;4.57;;
5085;SDS011;4715;51.660;7.082;2023-08-01T09:30:04;5.17;;;3.97;;
5085;SDS011;4715;51.660;7.082;2023-08-01T09:32:29;4.13;;;3.70;;
5085;SDS011;4715;51.660;7.082;2023-08-01T09:34:57;5.10;;;4.50;;
5085;SDS011;4715;51.660;7.082;2023-08-01T09:37:20;4.00;;;3.57;;
5085;SDS011;4715;51.660;7.082;2023-08-01T09:39:44;7.20;;;4.33;;
5085;SDS011;4715;51.660;7.082;2023-08-01T09:42:14;7.90;;;4.70;;
5085;SDS011;4715;51.660;7.082;2023-08-01T09:44:37;10.23;;;4.87;;
5085;SDS011;4715;51.660;7.082;2023-08-01T09:46:59;5.50;;;3.77;;
5085;SDS011;4715;51.660;7.082;2023-08-01T09:49:22;5.83;;;5.33;;
5085;SDS011;4715;51.660;7.082;2023-08-01T09:51:47;5.50;;;5.00;;
5085;SDS011;4715;51.660;7.082;2023-08-01T09:54:09;7.10;;;3.97;;
5085;SDS011;4715;51.660;7.082;2023-08-01T09:56:33;5.27;;;4.77;;
5085;SDS011;4715;51.660;7.082;2023-08-01T09:58:55;5.43;;;4.93;;
5085;SDS011;4715;51.660;7.082;2023-08-01T10:01:20;5.13;;;4.67;;
5085;SDS011;4715;51.660;7.082;2023-08-01T10:03:44;4.33;;;4.00;;
5085;SDS011;4715;51.660;7.082;2023-08-01T10:06:07;5.77;;;4.47;;
5085;SDS011;4715;51.660;7.082;2023-08-01T10:08:29;5.83;;;4.13;;
5085;SDS011;4715;51.660;7.082;2023-08-01T10:10:53;4.33;;;4.00;;
5085;SDS011;4715;51.660;7.082;2023-08-01T10:13:18;4.30;;;4.00;;
5085;SDS011;4715;51.660;7.082;2023-08-01T10:15:44;4.20;;;3.90;;
5085;SDS011;4715;51.660;7.082;2023-08-01T10:18:06;5.73;;;4.83;;
5085;SDS011;4715;51.660;7.082;2023-08-01T10:20:29;6.40;;;4.53;;
5085;SDS011;4715;51.660;7.082;2023-08-01T10:22:52;5.20;;;3.80;;
5085;SDS011;4715;51.660;7.082;2023-08-01T10:25:14;6.40;;;4.00;;
5085;SDS011;4715;51.660;7.082;2023-08-01T10:27:38;5.03;;;4.20;;
5085;SDS011;4715;51.660;7.082;2023-08-01T10:30:03;5.80;;;4.17;;
5085;SDS011;4715;51.660;7.082;2023-08-01T10:32:31;8.80;;;3.80;;
5085;SDS011;4715;51.660;7.082;2023-08-01T10:34:53;4.17;;;3.77;;
5085;SDS011;4715;51.660;7.082;2023-08-01T10:37:16;6.90;;;4.27;;
5085;SDS011;4715;51.660;7.082;2023-08-01T10:39:38;5.57;;;3.60;;
5085;SDS011;4715;51.660;7.082;2023-08-01T10:42:02;4.87;;;4.33;;
5085;SDS011;4715;51.660;7.082;2023-08-01T10:44:25;4.57;;;4.20;;
5085;SDS011;4715;51.660;7.082;2023-08-01T10:46:52;4.80;;;3.70;;
5085;SDS011;4715;51.660;7.082;2023-08-01T10:49:15;5.23;;;4.70;;
5085;SDS011;4715;51.660;7.082;2023-08-01T10:51:37;4.73;;;4.20;;
5085;SDS011;4715;51.660;7.082;2023-08-01T10:53:59;4.27;;;4.07;;
5085;SDS011;4715;51.660;7.082;2023-08-01T10:56:21;4.03;;;3.63;;
5085;SDS011;4715;51.660;7.082;2023-08-01T10:58:43;4.63;;;4.27;;
5085;SDS011;4715;51.660;7.082;2023-08-01T11:01:05;3.83;;;3.53;;
5085;SDS011;4715;51.660;7.082;2023-08-01T11:03:35;4.03;;;3.70;;
5085;SDS011;4715;51.660;7.082;2023-08-01T11:05:57;3.83;;;3.57;;
5085;SDS011;4715;51.660;7.082;2023-08-01T11:08:20;3.20;;;3.00;;
5085;SDS011;4715;51.660;7.082;2023-08-01T11:10:48;3.60;;;3.30;;
5085;SDS011;4715;51.660;7.082;2023-08-01T11:13:11;6.30;;;3.40;;
5085;SDS011;4715;51.660;7.082;2023-08-01T11:15:36;3.87;;;3.50;;
5085;SDS011;4715;51.660;7.082;2023-08-01T11:17:58;5.77;;;3.90;;
5085;SDS011;4715;51.660;7.082;2023-08-01T11:20:22;5.50;;;3.67;;
5085;SDS011;4715;51.660;7.082;2023-08-01T11:22:52;3.03;;;2.73;;
5085;SDS011;4715;51.660;7.082;2023-08-01T11:25:16;3.80;;;2.83;;
5085;SDS011;4715;51.660;7.082;2023-08-01T11:27:38;3.20;;;2.90;;
5085;SDS011;4715;51.660;7.082;2023-08-01T11:30:00;4.63;;;3.50;;
5085;SDS011;4715;51.660;7.082;2023-08-01T11:32:22;3.67;;;2.63;;
5085;SDS011;4715;51.660;7.082;2023-08-01T11:34:55;5.30;;;2.60;;
5085;SDS011;4715;51.660;7.082;2023-08-01T11:37:19;3.33;;;2.90;;
5085;SDS011;4715;51.660;7.082;2023-08-01T11:39:41;4.93;;;2.37;;
5085;SDS011;4715;51.660;7.082;2023-08-01T11:42:04;3.17;;;2.63;;
5085;SDS011;4715;51.660;7.082;2023-08-01T11:44:26;2.97;;;2.70;;
5085;SDS011;4715;51.660;7.082;2023-08-01T11:46:48;4.80;;;3.33;;
5085;SDS011;4715;51.660;7.082;2023-08-01T11:49:13;2.63;;;2.43;;
5085;SDS011;4715;51.660;7.082;2023-08-01T11:51:38;8.43;;;3.57;;
5085;SDS011;4715;51.660;7.082;2023-08-01T11:54:02;3.20;;;2.40;;
5085;SDS011;4715;51.660;7.082;2023-08-01T11:56:26;3.07;;;2.27;;
5085;SDS011;4715;51.660;7.082;2023-08-01T11:58:49;3.50;;;2.87;;
5085;SDS011;4715;51.660;7.082;2023-08-01T12:01:14;3.00;;;2.60;;
5085;SDS011;4715;51.660;7.082;2023-08-01T12:03:44;3.53;;;2.30;;
5085;SDS011;4715;51.660;7.082;2023-08-01T12:06:08;2.70;;;2.50;;
5085;SDS011;4715;51.660;7.082;2023-08-01T12:08:33;8.27;;;3.47;;
5085;SDS011;4715;51.660;7.082;2023-08-01T12:10:57;3.57;;;2.43;;
5085;SDS011;4715;51.660;7.082;2023-08-01T12:13:19;2.77;;;2.37;;
5085;SDS011;4715;51.660;7.082;2023-08-01T12:15:42;2.90;;;2.30;;
5085;SDS011;4715;51.660;7.082;2023-08-01T12:18:04;2.90;;;2.20;;
5085;SDS011;4715;51.660;7.082;2023-08-01T12:20:26;4.03;;;2.00;;
5085;SDS011;4715;51.660;7.082;2023-08-01T12:22:48;2.50;;;2.10;;
5085;SDS011;4715;51.660;7.082;2023-08-01T12:25:12;4.73;;;1.97;;
5085;SDS011;4715;51.660;7.082;2023-08-01T12:27:36;6.77;;;2.70;;
5085;SDS011;4715;51.660;7.082;2023-08-01T12:29:57;3.40;;;2.10;;
5085;SDS011;4715;51.660;7.082;2023-08-01T12:32:19;4.27;;;2.40;;
5085;SDS011;4715;51.660;7.082;2023-08-01T12:34:42;2.10;;;2.00;;
5085;SDS011;4715;51.660;7.082;2023-08-01T12:37:07;3.00;;;2.00;;
5085;SDS011;4715;51.660;7.082;2023-08-01T12:39:29;2.33;;;2.13;;
5085;SDS011;4715;51.660;7.082;2023-08-01T12:41:51;4.20;;;2.40;;
5085;SDS011;4715;51.660;7.082;2023-08-01T12:44:15;7.97;;;2.90;;
5085;SDS011;4715;51.660;7.082;2023-08-01T12:46:37;3.53;;;1.83;;
5085;SDS011;4715;51.660;7.082;2023-08-01T12:48:59;3.27;;;2.10;;
5085;SDS011;4715;51.660;7.082;2023-08-01T12:51:22;4.20;;;2.67;;
5085;SDS011;4715;51.660;7.082;2023-08-01T12:53:44;3.13;;;2.60;;
5085;SDS011;4715;51.660;7.082;2023-08-01T12:56:06;2.57;;;2.10;;
5085;SDS011;4715;51.660;7.082;2023-08-01T12:58:29;2.63;;;2.10;;
5085;SDS011;4715;51.660;7.082;2023-08-01T13:00:53;6.20;;;2.20;;
5085;SDS011;4715;51.660;7.082;2023-08-01T13:03:15;1.93;;;1.67;;
5085;SDS011;4715;51.660;7.082;2023-08-01T13:05:37;3.10;;;2.00;;
5085;SDS011;4715;51.660;7.082;2023-08-01T13:08:01;3.60;;;2.57;;
5085;SDS011;4715;51.660;7.082;2023-08-01T13:10:29;2.53;;;2.20;;
5085;SDS011;4715;51.660;7.082;2023-08-01T13:12:52;2.07;;;1.87;;
5085;SDS011;4715;51.660;7.082;2023-08-01T13:15:19;2.23;;;2.03;;
5085;SDS011;4715;51.660;7.082;2023-08-01T13:17:44;4.53;;;2.43;;
5085;SDS011;4715;51.660;7.082;2023-08-01T13:20:06;2.80;;;1.83;;
5085;SDS011;4715;51.660;7.082;2023-08-01T13:22:30;5.87;;;1.80;;
5085;SDS011;4715;51.660;7.082;2023-08-01T13:24:52;3.40;;;2.50;;
5085;SDS011;4715;51.660;7.082;2023-08-01T13:27:14;2.40;;;1.57;;
5085;SDS011;4715;51.660;7.082;2023-08-01T13:29:41;3.27;;;2.17;;
5085;SDS011;4715;51.660;7.082;2023-08-01T13:32:03;6.63;;;2.30;;
5085;SDS011;4715;51.660;7.082;2023-08-01T13:34:27;4.60;;;2.57;;
5085;SDS011;4715;51.660;7.082;2023-08-01T13:36:49;5.43;;;2.13;;
5085;SDS011;4715;51.660;7.082;2023-08-01T13:39:16;1.83;;;1.63;;
5085;SDS011;4715;51.660;7.082;2023-08-01T13:41:38;2.93;;;1.80;;
5085;SDS011;4715;51.660;7.082;2023-08-01T13:44:01;5.03;;;2.40;;
5085;SDS011;4715;51.660;7.082;2023-08-01T13:46:23;5.87;;;2.03;;
5085;SDS011;4715;51.660;7.082;2023-08-01T13:48:47;1.90;;;1.80;;
5085;SDS011;4715;51.660;7.082;2023-08-01T13:51:10;5.87;;;2.10;;
5085;SDS011;4715;51.660;7.082;2023-08-01T13:53:33;2.63;;;1.93;;
5085;SDS011;4715;51.660;7.082;2023-08-01T13:55:56;3.70;;;1.77;;
5085;SDS011;4715;51.660;7.082;2023-08-01T13:58:19;4.23;;;2.20;;
5085;SDS011;4715;51.660;7.082;2023-08-01T14:00:41;3.47;;;1.70;;
5085;SDS011;4715;51.660;7.082;2023-08-01T14:03:03;4.03;;;2.00;;
5085;SDS011;4715;51.660;7.082;2023-08-01T14:05:26;4.60;;;1.93;;
5085;SDS011;4715;51.660;7.082;2023-08-01T14:07:58;2.93;;;1.73;;
5085;SDS011;4715;51.660;7.082;2023-08-01T14:10:21;3.70;;;1.90;;
5085;SDS011;4715;51.660;7.082;2023-08-01T14:12:43;3.70;;;1.90;;
5085;SDS011;4715;51.660;7.082;2023-08-01T14:15:06;4.83;;;2.20;;
5085;SDS011;4715;51.660;7.082;2023-08-01T14:17:31;1.87;;;1.77;;
5085;SDS011;4715;51.660;7.082;2023-08-01T14:19:53;5.73;;;1.93;;
5085;SDS011;4715;51.660;7.082;2023-08-01T14:22:17;6.50;;;2.43;;
5085;SDS011;4715;51.660;7.082;2023-08-01T14:24:41;4.90;;;2.60;;
5085;SDS011;4715;51.660;7.082;2023-08-01T14:27:05;3.13;;;2.23;;
5085;SDS011;4715;51.660;7.082;2023-08-01T14:29:28;3.90;;;2.90;;
5085;SDS011;4715;51.660;7.082;2023-08-01T14:31:51;2.57;;;1.67;;
5085;SDS011;4715;51.660;7.082;2023-08-01T14:34:13;6.90;;;2.13;;
5085;SDS011;4715;51.660;7.082;2023-08-01T14:36:35;1.53;;;1.43;;
5085;SDS011;4715;51.660;7.082;2023-08-01T14:38:57;2.23;;;1.77;;
5085;SDS011;4715;51.660;7.082;2023-08-01T14:41:21;3.83;;;1.87;;
5085;SDS011;4715;51.660;7.082;2023-08-01T14:43:43;1.87;;;1.57;;